createdAt,value
2022-12-09T00:00:13.167Z,11.82
2022-12-09T00:02:40.277Z,11.45
2022-12-09T00:05:08.367Z,11.52
2022-12-09T00:07:43.839Z,11.27
2022-12-09T00:10:11.161Z,11.82
2022-12-09T00:12:38.093Z,11.13
2022-12-09T00:15:05.170Z,11.00
2022-12-09T00:17:32.220Z,10.75
2022-12-09T00:19:59.186Z,12.02
2022-12-09T00:22:29.791Z,10.68
2022-12-09T00:24:56.401Z,11.65
2022-12-09T00:27:23.126Z,12.07
2022-12-09T00:29:49.943Z,12.50
2022-12-09T00:32:16.827Z,11.07
2022-12-09T00:34:43.579Z,12.18
2022-12-09T00:37:10.339Z,11.27
2022-12-09T00:39:37.023Z,12.38
2022-12-09T00:42:03.904Z,12.23
2022-12-09T00:44:30.689Z,11.75
2022-12-09T00:46:57.664Z,11.73
2022-12-09T00:49:24.811Z,11.88
2022-12-09T00:51:54.089Z,11.00
2022-12-09T00:54:21.105Z,11.75
2022-12-09T00:56:47.866Z,12.15
2022-12-09T00:59:14.730Z,11.07
2022-12-09T01:01:41.513Z,11.00
2022-12-09T01:04:08.849Z,11.40
2022-12-09T01:06:36.193Z,10.82
2022-12-09T01:09:04.020Z,11.32
2022-12-09T01:11:31.143Z,11.48
2022-12-09T01:14:01.322Z,11.93
2022-12-09T01:16:31.045Z,11.77
2022-12-09T01:19:00.322Z,11.60
2022-12-09T01:21:28.728Z,10.77
2022-12-09T01:23:55.640Z,10.70
2022-12-09T01:26:22.658Z,11.27
2022-12-09T01:28:53.588Z,11.88
2022-12-09T01:31:23.260Z,11.23
2022-12-09T01:33:51.059Z,11.55
2022-12-09T01:36:29.063Z,11.60
2022-12-09T01:38:57.656Z,10.80
2022-12-09T01:41:24.723Z,11.02
2022-12-09T01:44:13.731Z,11.48
2022-12-09T01:46:41.306Z,11.32
2022-12-09T01:49:11.408Z,11.80
2022-12-09T01:51:38.542Z,11.98
2022-12-09T01:54:05.705Z,11.32
2022-12-09T01:56:34.089Z,12.05
2022-12-09T01:59:07.608Z,12.10
2022-12-09T02:01:34.655Z,12.40
2022-12-09T02:04:02.015Z,12.63
2022-12-09T02:06:31.685Z,12.68
2022-12-09T02:08:58.754Z,12.43
2022-12-09T02:11:52.902Z,12.20
2022-12-09T02:14:25.068Z,12.65
2022-12-09T02:17:10.087Z,13.68
2022-12-09T02:20:01.987Z,11.50
2022-12-09T02:22:39.028Z,11.68
2022-12-09T02:25:33.408Z,12.73
2022-12-09T02:28:11.970Z,12.07
2022-12-09T02:31:13.675Z,12.00
2022-12-09T02:34:15.505Z,11.70
2022-12-09T02:37:05.129Z,12.13
2022-12-09T02:40:00.088Z,10.93
2022-12-09T02:42:31.389Z,11.68
2022-12-09T02:45:02.730Z,9.15
2022-12-09T02:47:31.827Z,10.85
2022-12-09T02:50:02.828Z,10.85
2022-12-09T02:52:31.467Z,10.82
2022-12-09T02:55:00.895Z,10.13
2022-12-09T02:57:29.674Z,10.80
2022-12-09T02:59:56.834Z,10.35
2022-12-09T03:02:24.357Z,10.38
2022-12-09T03:05:21.436Z,10.65
2022-12-09T03:08:29.281Z,10.63
2022-12-09T03:11:02.935Z,10.52
2022-12-09T03:14:08.054Z,10.35
2022-12-09T03:16:35.885Z,10.05
2022-12-09T03:19:26.786Z,10.85
2022-12-09T03:21:57.518Z,10.43
2022-12-09T03:24:36.993Z,9.52
2022-12-09T03:27:07.716Z,9.25
2022-12-09T03:29:38.073Z,9.48
2022-12-09T03:32:05.343Z,10.32
2022-12-09T03:34:36.226Z,11.05
2022-12-09T03:37:06.688Z,10.05
2022-12-09T03:39:36.368Z,10.75
2022-12-09T03:42:10.296Z,9.93
2022-12-09T03:44:40.175Z,10.25
2022-12-09T03:47:07.712Z,9.80
2022-12-09T03:49:34.905Z,9.40
2022-12-09T03:52:04.621Z,10.75
2022-12-09T03:54:43.387Z,10.48
2022-12-09T03:57:19.219Z,10.60
2022-12-09T03:59:52.001Z,10.57
2022-12-09T04:02:19.120Z,10.95
2022-12-09T04:04:46.739Z,11.38
2022-12-09T04:07:13.899Z,11.20
2022-12-09T04:09:40.709Z,11.73
2022-12-09T04:12:11.056Z,10.30
2022-12-09T04:14:37.978Z,11.32
2022-12-09T04:17:05.587Z,11.63
2022-12-09T04:19:32.769Z,10.93
2022-12-09T04:22:02.427Z,11.43
2022-12-09T04:24:29.890Z,11.82
2022-12-09T04:26:56.600Z,11.60
2022-12-09T04:29:23.820Z,10.93
2022-12-09T04:31:51.130Z,10.68
2022-12-09T04:34:18.084Z,11.10
2022-12-09T04:36:45.005Z,10.85
2022-12-09T04:39:11.961Z,11.07
2022-12-09T04:41:41.496Z,12.52
2022-12-09T04:44:08.385Z,11.15
2022-12-09T04:46:37.547Z,11.18
2022-12-09T04:49:04.869Z,11.68
2022-12-09T04:51:39.441Z,10.90
2022-12-09T04:54:07.804Z,11.85
2022-12-09T04:56:34.911Z,11.95
2022-12-09T04:59:01.777Z,11.95
2022-12-09T05:01:31.578Z,12.20
2022-12-09T05:03:59.510Z,11.65
2022-12-09T05:06:27.446Z,10.25
2022-12-09T05:08:54.982Z,10.65
2022-12-09T05:11:24.261Z,10.65
2022-12-09T05:13:53.366Z,10.50
2022-12-09T05:16:24.083Z,10.88
2022-12-09T05:18:51.028Z,11.27
2022-12-09T05:21:23.853Z,11.05
2022-12-09T05:23:51.128Z,11.75
2022-12-09T05:26:21.492Z,10.85
2022-12-09T05:28:48.757Z,10.90
2022-12-09T05:31:19.945Z,11.43
2022-12-09T05:33:47.857Z,11.65
2022-12-09T05:36:20.265Z,12.48
2022-12-09T05:38:47.735Z,11.10
2022-12-09T05:41:14.721Z,11.32
2022-12-09T05:43:41.731Z,11.43
2022-12-09T05:46:09.344Z,11.70
2022-12-09T05:48:36.693Z,11.23
2022-12-09T05:51:07.294Z,12.30
2022-12-09T05:53:34.685Z,11.20
2022-12-09T05:56:02.186Z,11.70
2022-12-09T05:58:29.584Z,11.70
2022-12-09T06:00:58.060Z,11.98
2022-12-09T06:03:25.416Z,11.93
2022-12-09T06:05:57.886Z,12.40
2022-12-09T06:08:24.786Z,12.48
2022-12-09T06:10:52.229Z,11.63
2022-12-09T06:13:20.092Z,11.43
2022-12-09T06:15:47.685Z,13.20
2022-12-09T06:18:17.555Z,11.10
2022-12-09T06:20:45.016Z,12.52
2022-12-09T06:23:12.097Z,12.82
2022-12-09T06:25:44.792Z,11.80
2022-12-09T06:28:12.420Z,12.68
2022-12-09T06:30:39.469Z,12.05
2022-12-09T06:33:22.874Z,11.55
2022-12-09T06:35:53.397Z,11.55
2022-12-09T06:38:20.261Z,12.25
2022-12-09T06:40:47.275Z,13.57
2022-12-09T06:43:14.493Z,14.80
2022-12-09T06:45:41.266Z,14.18
2022-12-09T06:48:08.505Z,14.68
2022-12-09T06:50:35.574Z,15.45
2022-12-09T06:53:02.571Z,15.20
2022-12-09T06:55:31.822Z,14.73
2022-12-09T06:58:01.806Z,14.73
2022-12-09T07:00:33.552Z,15.30
2022-12-09T07:03:03.686Z,16.45
2022-12-09T07:05:32.351Z,15.05
2022-12-09T07:07:59.632Z,15.57
2022-12-09T07:10:26.769Z,16.95
2022-12-09T07:12:54.236Z,16.20
2022-12-09T07:15:21.133Z,16.55
2022-12-09T07:17:48.340Z,14.98
2022-12-09T07:20:15.748Z,15.32
2022-12-09T07:22:42.633Z,15.55
2022-12-09T07:25:10.343Z,16.75
2022-12-09T07:27:38.118Z,16.40
2022-12-09T07:30:08.194Z,16.38
2022-12-09T07:32:35.341Z,15.18
2022-12-09T07:35:02.298Z,16.48
2022-12-09T07:37:29.675Z,16.13
2022-12-09T07:39:56.513Z,15.30
2022-12-09T07:42:23.436Z,15.80
2022-12-09T07:44:50.386Z,16.60
2022-12-09T07:47:17.383Z,17.15
2022-12-09T07:49:44.690Z,17.90
2022-12-09T07:52:15.746Z,17.40
2022-12-09T07:54:42.901Z,16.90
2022-12-09T07:57:10.069Z,15.57
2022-12-09T07:59:37.234Z,17.20
2022-12-09T08:02:06.522Z,16.92
2022-12-09T08:04:35.697Z,16.38
2022-12-09T08:07:03.512Z,15.68
2022-12-09T08:09:31.082Z,15.90
2022-12-09T08:12:01.310Z,16.20
2022-12-09T08:14:29.065Z,16.40
2022-12-09T08:16:57.155Z,16.67
2022-12-09T08:19:24.014Z,16.85
2022-12-09T08:21:54.537Z,16.85
2022-12-09T08:24:24.195Z,16.45
2022-12-09T08:26:51.543Z,17.45
2022-12-09T08:29:18.533Z,17.33
2022-12-09T08:31:47.580Z,16.30
2022-12-09T08:34:16.922Z,16.40
2022-12-09T08:36:46.488Z,16.52
2022-12-09T08:39:14.009Z,16.40
2022-12-09T08:41:41.174Z,16.90
2022-12-09T08:44:18.777Z,16.20
2022-12-09T08:46:49.210Z,15.07
2022-12-09T08:49:22.334Z,17.10
2022-12-09T08:51:53.678Z,15.65
2022-12-09T08:54:20.844Z,17.00
2022-12-09T08:56:49.510Z,16.17
2022-12-09T08:59:16.947Z,16.42
2022-12-09T09:01:44.732Z,16.50
2022-12-09T09:04:13.803Z,17.38
2022-12-09T09:06:43.475Z,15.57
2022-12-09T09:09:13.270Z,15.35
2022-12-09T09:11:41.339Z,15.05
2022-12-09T09:14:10.321Z,14.80
2022-12-09T09:16:39.782Z,14.75
2022-12-09T09:19:07.892Z,15.15
2022-12-09T09:21:35.775Z,14.93
2022-12-09T09:24:11.375Z,14.00
2022-12-09T09:26:44.269Z,15.38
2022-12-09T09:29:12.684Z,14.70
2022-12-09T09:31:39.960Z,14.05
2022-12-09T09:34:07.582Z,13.15
2022-12-09T09:36:34.881Z,15.05
2022-12-09T09:39:02.235Z,14.32
2022-12-09T09:41:41.003Z,13.82
2022-12-09T09:44:22.515Z,13.75
2022-12-09T09:46:51.745Z,13.20
2022-12-09T09:49:59.883Z,14.32
2022-12-09T09:52:29.015Z,13.48
2022-12-09T09:54:56.479Z,14.23
2022-12-09T09:57:37.981Z,13.73
2022-12-09T10:00:22.443Z,13.50
2022-12-09T10:02:56.072Z,14.55
2022-12-09T10:05:36.536Z,13.55
2022-12-09T10:08:18.381Z,13.13
2022-12-09T10:11:23.378Z,14.13
2022-12-09T10:13:58.661Z,12.43
2022-12-09T10:16:35.768Z,13.35
2022-12-09T10:19:09.672Z,13.48
2022-12-09T10:21:41.068Z,13.23
2022-12-09T10:24:27.805Z,13.95
2022-12-09T10:27:01.463Z,13.20
2022-12-09T10:30:00.865Z,13.55
2022-12-09T10:32:30.876Z,13.93
2022-12-09T10:34:58.271Z,14.50
2022-12-09T10:37:29.291Z,14.52
2022-12-09T10:40:19.714Z,14.00
2022-12-09T10:43:06.596Z,14.70
2022-12-09T10:46:07.987Z,13.90
2022-12-09T10:48:23.090Z,13.98
2022-12-09T10:50:56.834Z,13.85
2022-12-09T10:53:24.643Z,14.27
2022-12-09T10:55:53.190Z,14.32
2022-12-09T10:58:23.076Z,14.77
2022-12-09T11:01:09.598Z,14.23
2022-12-09T11:03:50.012Z,14.95
2022-12-09T11:06:28.977Z,14.35
2022-12-09T11:08:59.102Z,15.13
2022-12-09T11:11:47.975Z,14.23
2022-12-09T11:14:24.826Z,14.27
2022-12-09T11:17:12.915Z,14.77
2022-12-09T11:19:40.734Z,16.13
2022-12-09T11:22:33.665Z,14.63
2022-12-09T11:25:12.993Z,15.93
2022-12-09T11:28:20.379Z,15.95
2022-12-09T11:33:54.411Z,13.55
2022-12-09T11:36:24.469Z,14.15
2022-12-09T11:38:54.584Z,14.05
2022-12-09T11:41:41.630Z,13.35
2022-12-09T11:44:34.354Z,13.38
2022-12-09T11:47:07.164Z,13.20
2022-12-09T11:49:44.968Z,13.15
2022-12-09T11:52:17.268Z,13.00
2022-12-09T11:55:00.865Z,13.00
2022-12-09T11:57:36.812Z,12.70
2022-12-09T12:00:31.075Z,12.93
2022-12-09T12:03:14.742Z,13.43
2022-12-09T12:05:44.030Z,12.82
2022-12-09T12:08:29.847Z,13.43
2022-12-09T12:10:57.957Z,13.50
2022-12-09T12:13:46.484Z,13.43
2022-12-09T12:17:00.862Z,13.85
2022-12-09T12:19:41.106Z,13.82
2022-12-09T12:22:29.505Z,13.20
2022-12-09T12:25:21.814Z,12.52
2022-12-09T12:27:51.900Z,14.30
2022-12-09T12:30:21.540Z,13.48
2022-12-09T12:36:05.999Z,13.90
2022-12-09T12:38:51.077Z,14.43
2022-12-09T12:41:47.222Z,14.80
2022-12-09T12:44:44.726Z,14.90
2022-12-09T12:47:59.174Z,15.90
2022-12-09T12:50:43.844Z,16.92
2022-12-09T12:53:19.125Z,19.02
2022-12-09T12:55:55.030Z,19.35
2022-12-09T12:58:40.086Z,20.20
2022-12-09T13:01:09.786Z,19.13
2022-12-09T13:04:13.899Z,21.58
2022-12-09T13:06:46.131Z,22.67
2022-12-09T13:09:53.796Z,20.73
2022-12-09T13:12:45.728Z,20.55
2022-12-09T13:15:14.804Z,19.80
2022-12-09T13:17:42.635Z,21.77
2022-12-09T13:20:34.715Z,23.08
2022-12-09T13:23:25.082Z,21.95
2022-12-09T13:26:27.297Z,21.80
2022-12-09T13:29:05.527Z,23.02
2022-12-09T13:31:35.362Z,23.75
2022-12-09T13:34:13.794Z,24.38
2022-12-09T13:36:48.197Z,24.38
2022-12-09T13:39:39.355Z,23.48
2022-12-09T13:42:46.917Z,22.75
2022-12-09T13:45:32.743Z,22.30
2022-12-09T13:48:25.561Z,23.55
2022-12-09T13:50:54.359Z,22.48
2022-12-09T13:53:35.321Z,22.02
2022-12-09T13:56:23.480Z,22.02
2022-12-09T13:59:11.546Z,23.10
2022-12-09T14:01:47.013Z,21.55
2022-12-09T14:04:19.433Z,21.45
2022-12-09T14:06:46.331Z,20.52
2022-12-09T14:09:24.172Z,21.65
2022-12-09T14:12:00.698Z,15.82
2022-12-09T14:14:27.336Z,14.88
2022-12-09T14:16:59.141Z,14.30
2022-12-09T14:19:25.743Z,15.00
2022-12-09T14:22:21.030Z,13.55
2022-12-09T14:24:52.065Z,13.75
2022-12-09T14:27:25.615Z,14.02
2022-12-09T14:30:02.641Z,14.25
2022-12-09T14:32:56.383Z,13.43
2022-12-09T14:35:48.323Z,12.20
2022-12-09T14:38:24.899Z,12.38
2022-12-09T14:40:56.721Z,11.70
2022-12-09T14:43:49.991Z,12.07
2022-12-09T14:46:23.104Z,11.25
2022-12-09T14:48:57.401Z,13.02
2022-12-09T14:51:28.008Z,13.35
2022-12-09T14:54:01.013Z,14.52
2022-12-09T14:56:30.544Z,13.52
2022-12-09T14:59:10.267Z,13.75
2022-12-09T15:01:57.405Z,15.15
2022-12-09T15:04:25.564Z,14.68
2022-12-09T15:07:09.911Z,14.40
2022-12-09T15:09:37.564Z,13.65
2022-12-09T15:12:10.669Z,13.40
2022-12-09T15:14:38.643Z,14.13
2022-12-09T15:17:06.165Z,15.40
2022-12-09T15:19:59.870Z,15.50
2022-12-09T15:22:24.981Z,15.75
2022-12-09T15:24:52.234Z,17.45
2022-12-09T15:27:21.921Z,17.48
2022-12-09T15:29:51.890Z,16.13
2022-12-09T15:32:21.008Z,15.80
2022-12-09T15:34:47.813Z,16.00
2022-12-09T15:37:15.007Z,16.73
2022-12-09T15:39:50.320Z,16.83
2022-12-09T15:42:22.177Z,16.27
2022-12-09T15:44:55.144Z,16.80
2022-12-09T15:47:33.551Z,16.67
2022-12-09T15:50:14.827Z,15.35
2022-12-09T15:53:03.715Z,15.88
2022-12-09T15:55:37.576Z,14.38
2022-12-09T15:58:13.696Z,16.92
2022-12-09T16:00:43.852Z,15.52
2022-12-09T16:03:10.466Z,16.42
2022-12-09T16:05:41.785Z,15.52
2022-12-09T16:08:09.364Z,16.60
2022-12-09T16:10:47.592Z,15.93
2022-12-09T16:13:19.240Z,15.82
2022-12-09T16:15:54.489Z,15.80
2022-12-09T16:18:23.886Z,16.45
2022-12-09T16:21:04.017Z,16.48
2022-12-09T16:23:30.740Z,16.88
2022-12-09T16:26:06.369Z,15.68
2022-12-09T16:28:33.777Z,15.68
2022-12-09T16:31:03.213Z,15.75
2022-12-09T16:33:35.427Z,15.50
2022-12-09T16:36:06.949Z,16.85
2022-12-09T16:38:35.464Z,16.10
2022-12-09T16:41:07.936Z,15.77
2022-12-09T16:43:34.781Z,16.65
2022-12-09T16:46:27.868Z,15.60
2022-12-09T16:48:54.613Z,16.35
2022-12-09T16:51:25.234Z,16.77
2022-12-09T16:53:52.827Z,16.73
2022-12-09T16:56:21.008Z,16.90
2022-12-09T16:58:47.770Z,16.45
2022-12-09T17:01:15.883Z,16.25
2022-12-09T17:04:09.895Z,17.15
2022-12-09T17:06:36.565Z,16.75
2022-12-09T17:09:03.514Z,16.30
2022-12-09T17:11:30.114Z,17.90
2022-12-09T17:13:56.832Z,15.38
2022-12-09T17:16:28.496Z,16.50
2022-12-09T17:18:57.756Z,15.48
2022-12-09T17:21:33.437Z,16.02
2022-12-09T17:24:00.038Z,15.75
2022-12-09T17:26:26.882Z,16.50
2022-12-09T17:28:59.835Z,17.00
2022-12-09T17:31:28.551Z,16.95
2022-12-09T17:33:57.010Z,16.15
2022-12-09T17:36:24.063Z,17.55
2022-12-09T17:38:51.439Z,16.20
2022-12-09T17:41:20.837Z,16.38
2022-12-09T17:43:47.813Z,17.42
2022-12-09T17:46:15.047Z,17.42
2022-12-09T17:48:42.175Z,14.57
2022-12-09T17:51:16.886Z,18.88
2022-12-09T17:53:44.158Z,17.75
2022-12-09T17:56:16.124Z,15.95
2022-12-09T17:58:43.304Z,15.55
2022-12-09T18:01:20.973Z,17.02
2022-12-09T18:03:56.215Z,15.63
2022-12-09T18:06:24.170Z,16.27
2022-12-09T18:08:54.287Z,14.52
2022-12-09T18:11:22.482Z,14.50
2022-12-09T18:13:49.416Z,15.07
2022-12-09T18:16:17.045Z,15.48
2022-12-09T18:18:43.805Z,14.65
2022-12-09T18:21:15.689Z,15.57
2022-12-09T18:23:43.244Z,14.23
2022-12-09T18:26:13.307Z,15.27
2022-12-09T18:28:43.283Z,14.38
2022-12-09T18:31:13.107Z,16.55
2022-12-09T18:33:40.401Z,14.90
2022-12-09T18:36:12.349Z,15.07
2022-12-09T18:38:39.898Z,15.25
2022-12-09T18:41:23.657Z,14.80
2022-12-09T18:43:53.289Z,15.77
2022-12-09T18:46:25.677Z,12.93
2022-12-09T18:49:07.450Z,15.45
2022-12-09T18:51:34.177Z,15.57
2022-12-09T18:54:01.850Z,15.63
2022-12-09T18:56:28.940Z,13.60
2022-12-09T18:59:07.902Z,13.95
2022-12-09T19:01:39.914Z,13.68
2022-12-09T19:04:12.902Z,13.60
2022-12-09T19:06:44.291Z,11.73
2022-12-09T19:09:16.557Z,12.43
2022-12-09T19:11:44.392Z,12.82
2022-12-09T19:14:18.216Z,13.15
2022-12-09T19:16:45.901Z,12.80
2022-12-09T19:19:15.703Z,11.50
2022-12-09T19:21:43.971Z,12.65
2022-12-09T19:24:19.185Z,11.70
2022-12-09T19:26:46.648Z,11.52
2022-12-09T19:29:18.632Z,11.73
2022-12-09T19:31:48.111Z,12.10
2022-12-09T19:34:19.105Z,13.32
2022-12-09T19:36:46.743Z,12.73
2022-12-09T19:39:14.416Z,14.40
2022-12-09T19:41:42.044Z,13.48
2022-12-09T19:44:21.698Z,12.93
2022-12-09T19:46:58.205Z,13.35
2022-12-09T19:49:25.236Z,12.43
2022-12-09T19:51:53.044Z,12.88
2022-12-09T19:54:28.102Z,13.20
2022-12-09T19:56:55.878Z,13.32
2022-12-09T19:59:22.727Z,12.73
2022-12-09T20:01:49.871Z,13.98
2022-12-09T20:07:09.246Z,13.02
2022-12-09T20:09:37.947Z,11.77
2022-12-09T20:12:04.952Z,10.52
2022-12-09T20:14:31.982Z,11.05
2022-12-09T20:16:58.901Z,10.30
2022-12-09T20:19:25.629Z,10.52
2022-12-09T20:21:52.548Z,11.75
2022-12-09T20:24:19.320Z,11.95
2022-12-09T20:26:46.026Z,11.60
2022-12-09T20:29:13.027Z,12.15
2022-12-09T20:31:41.597Z,11.75
2022-12-09T20:34:16.391Z,11.73
2022-12-09T20:36:44.588Z,12.65
2022-12-09T20:39:21.845Z,10.90
2022-12-09T20:41:48.727Z,12.13
2022-12-09T20:44:16.734Z,11.63
2022-12-09T20:46:48.924Z,12.32
2022-12-09T20:49:16.176Z,11.82
2022-12-09T20:51:45.484Z,12.52
2022-12-09T20:54:12.880Z,12.45
2022-12-09T20:56:40.086Z,12.93
2022-12-09T20:59:09.125Z,11.85
2022-12-09T21:01:37.480Z,13.27
2022-12-09T21:04:08.807Z,14.52
2022-12-09T21:06:38.108Z,12.88
2022-12-09T21:09:08.925Z,11.80
2022-12-09T21:11:37.325Z,12.10
2022-12-09T21:14:05.266Z,12.50
2022-12-09T21:16:33.790Z,10.88
2022-12-09T21:19:02.707Z,11.77
2022-12-09T21:21:32.106Z,11.65
2022-12-09T21:23:59.939Z,11.20
2022-12-09T21:26:27.010Z,11.40
2022-12-09T21:28:54.050Z,11.88
2022-12-09T21:31:27.901Z,11.73
2022-12-09T21:33:56.685Z,10.93
2022-12-09T21:36:28.492Z,11.50
2022-12-09T21:38:55.840Z,11.48
2022-12-09T21:41:27.539Z,10.77
2022-12-09T21:43:58.099Z,11.00
2022-12-09T21:46:27.246Z,11.40
2022-12-09T21:49:01.542Z,10.70
2022-12-09T21:51:30.256Z,11.32
2022-12-09T21:53:57.685Z,10.60
2022-12-09T21:56:27.918Z,11.20
2022-12-09T21:58:57.102Z,10.77
2022-12-09T22:01:32.108Z,10.93
2022-12-09T22:04:00.652Z,9.52
2022-12-09T22:06:28.725Z,10.10
2022-12-09T22:08:55.415Z,10.15
2022-12-09T22:11:25.071Z,10.30
2022-12-09T22:13:52.599Z,10.20
2022-12-09T22:16:23.746Z,10.18
2022-12-09T22:18:53.529Z,11.80
2022-12-09T22:21:25.160Z,10.18
2022-12-09T22:23:56.722Z,11.27
2022-12-09T22:26:24.031Z,10.68
2022-12-09T22:28:53.667Z,10.85
2022-12-09T22:31:23.474Z,10.60
2022-12-09T22:33:51.866Z,10.40
2022-12-09T22:36:19.294Z,10.32
2022-12-09T22:38:46.714Z,10.13
2022-12-09T22:41:19.142Z,10.50
2022-12-09T22:43:45.983Z,10.38
2022-12-09T22:46:15.297Z,10.10
2022-12-09T22:48:42.824Z,10.15
2022-12-09T22:51:18.359Z,10.45
2022-12-09T22:53:48.707Z,10.25
2022-12-09T22:56:15.300Z,10.15
2022-12-09T22:58:42.133Z,9.15
2022-12-09T23:01:20.502Z,9.68
2022-12-09T23:03:47.666Z,9.85
2022-12-09T23:06:14.620Z,10.52
2022-12-09T23:08:44.627Z,9.85
2022-12-09T23:11:20.349Z,8.90
2022-12-09T23:13:47.328Z,10.13
2022-12-09T23:16:16.776Z,10.05
2022-12-09T23:18:43.669Z,10.05
2022-12-09T23:21:13.593Z,9.35
2022-12-09T23:23:40.815Z,9.57
2022-12-09T23:26:15.903Z,9.90
2022-12-09T23:28:48.726Z,9.88
2022-12-09T23:31:17.531Z,10.15
2022-12-09T23:33:45.509Z,9.23
2022-12-09T23:36:17.736Z,10.25
2022-12-09T23:38:44.982Z,9.82
2022-12-09T23:41:12.765Z,9.48
2022-12-09T23:43:39.592Z,9.68
2022-12-09T23:46:14.846Z,10.82
2022-12-09T23:48:46.179Z,10.52
2022-12-09T23:51:15.719Z,10.52
2022-12-09T23:53:43.642Z,10.27
2022-12-09T23:56:15.652Z,10.77
2022-12-09T23:58:42.654Z,9.57
